Terminal Aerodrome Forecast
Issued by NWS New Orleans/Baton Rouge, LA

Home | Current Version | Previous Version | Text Only | Print | Product List | Glossary On
Versions: 1 2 3 4 5 6 7 8 9 10 11 12 13 14 15 16 17 18 19 20 21 22 23 24 25
000
FTUS44 KLIX 312300
TAFNEW
TAF
KNEW 312339Z 0100/0124 09011KT P6SM SCT150
     FM010700 12008KT P6SM BKN050
     FM011000 13008KT P6SM OVC035
     FM011600 15011KT P6SM OVC035
     FM011800 21011KT P6SM VCSH OVC035=

USA.gov is the U.S. government's official web portal to all federal, state and local government web resources and services.